createdAt,value
2023-01-11T00:01:04.700Z,78.07
2023-01-11T00:03:31.702Z,80.49
2023-01-11T00:05:59.316Z,79.83
2023-01-11T00:08:27.268Z,80.01
2023-01-11T00:10:54.531Z,75.09
2023-01-11T00:13:21.233Z,79.85
2023-01-11T00:15:49.143Z,79.38
2023-01-11T00:18:15.781Z,79.75
2023-01-11T00:20:42.398Z,79.25
2023-01-11T00:23:09.183Z,79.53
2023-01-11T00:25:36.239Z,77.88
2023-01-11T00:28:02.831Z,80.15
2023-01-11T00:30:29.445Z,79.90
2023-01-11T00:32:58.530Z,79.75
2023-01-11T00:35:25.946Z,79.42
2023-01-11T00:37:53.832Z,79.67
2023-01-11T00:40:20.428Z,79.65
2023-01-11T00:43:05.669Z,76.45
2023-01-11T00:45:51.008Z,79.48
2023-01-11T00:48:18.894Z,74.40
2023-01-11T00:50:45.387Z,78.19
2023-01-11T00:53:11.900Z,80.63
2023-01-11T00:55:38.523Z,79.96
2023-01-11T00:58:05.186Z,79.76
2023-01-11T01:00:31.789Z,79.38
2023-01-11T01:02:58.503Z,79.82
2023-01-11T01:05:26.530Z,79.84
2023-01-11T01:07:53.185Z,77.20
2023-01-11T01:10:20.505Z,81.17
2023-01-11T01:13:05.605Z,79.63
2023-01-11T01:15:32.564Z,79.81
2023-01-11T01:17:59.190Z,79.99
2023-01-11T01:20:27.711Z,79.87
2023-01-11T01:22:54.331Z,79.20
2023-01-11T01:25:20.868Z,80.55
2023-01-11T01:27:47.454Z,79.65
2023-01-11T01:30:14.628Z,79.32
2023-01-11T01:32:41.276Z,79.70
2023-01-11T01:35:08.708Z,75.62
2023-01-11T01:37:36.681Z,80.27
2023-01-11T01:40:03.681Z,82.68
2023-01-11T01:42:30.312Z,83.27
2023-01-11T01:44:59.843Z,78.63
2023-01-11T01:47:33.885Z,81.61
2023-01-11T01:50:04.797Z,80.48
2023-01-11T01:52:33.538Z,81.12
2023-01-11T01:55:05.524Z,80.25
2023-01-11T01:57:35.540Z,78.10
2023-01-11T02:00:07.128Z,79.99
2023-01-11T02:02:34.912Z,80.54
2023-01-11T02:05:01.879Z,82.71
2023-01-11T02:07:32.713Z,80.86
2023-01-11T02:10:03.460Z,80.21
2023-01-11T02:12:32.711Z,80.38
2023-01-11T02:15:00.503Z,79.87
2023-01-11T02:17:27.068Z,80.44
2023-01-11T02:19:57.681Z,80.20
2023-01-11T02:23:12.019Z,79.34
2023-01-11T02:26:02.247Z,81.79
2023-01-11T02:28:34.157Z,82.37
2023-01-11T02:31:10.368Z,83.35
2023-01-11T02:33:43.297Z,81.09
2023-01-11T02:36:17.618Z,80.75
2023-01-11T02:38:50.629Z,80.60
2023-01-11T02:41:24.119Z,80.07
2023-01-11T02:44:18.680Z,80.30
2023-01-11T02:46:49.322Z,80.22
2023-01-11T02:49:24.034Z,80.27
2023-01-11T02:51:54.602Z,80.60
2023-01-11T02:54:24.022Z,80.26
2023-01-11T02:56:55.844Z,79.46
2023-01-11T02:59:29.263Z,80.93
2023-01-11T03:01:55.970Z,80.29
2023-01-11T03:04:24.863Z,80.03
2023-01-11T03:07:00.190Z,80.07
2023-01-11T03:09:35.223Z,80.65
2023-01-11T03:12:41.934Z,78.85
2023-01-11T03:15:25.508Z,80.99
2023-01-11T03:18:04.577Z,80.33
2023-01-11T03:20:35.636Z,78.51
2023-01-11T03:23:14.762Z,81.15
2023-01-11T03:25:55.548Z,79.78
2023-01-11T03:28:30.765Z,80.40
2023-01-11T03:31:02.379Z,80.46
2023-01-11T03:33:37.412Z,80.43
2023-01-11T03:36:11.176Z,80.07
2023-01-11T03:38:42.776Z,80.47
2023-01-11T03:41:13.641Z,79.92
2023-01-11T03:43:44.053Z,80.04
2023-01-11T03:46:15.438Z,80.11
2023-01-11T03:48:47.352Z,79.99
2023-01-11T03:51:19.045Z,80.53
2023-01-11T03:53:49.442Z,76.06
2023-01-11T03:56:20.074Z,81.17
2023-01-11T03:58:46.687Z,81.22
2023-01-11T04:01:14.914Z,80.38
2023-01-11T04:03:41.426Z,80.71
2023-01-11T04:06:11.043Z,80.86
2023-01-11T04:08:37.548Z,77.76
2023-01-11T04:11:04.879Z,80.43
2023-01-11T04:13:32.310Z,80.70
2023-01-11T04:15:58.875Z,80.45
2023-01-11T04:18:26.731Z,80.74
2023-01-11T04:20:53.255Z,80.74
2023-01-11T04:23:19.816Z,80.73
2023-01-11T04:25:46.991Z,80.62
2023-01-11T04:28:13.484Z,78.51
2023-01-11T04:30:39.987Z,80.80
2023-01-11T04:33:06.490Z,80.38
2023-01-11T04:35:34.341Z,80.22
2023-01-11T04:38:00.908Z,80.40
2023-01-11T04:40:27.458Z,80.35
2023-01-11T04:42:53.966Z,80.43
2023-01-11T04:45:20.535Z,79.58
2023-01-11T04:47:52.907Z,75.75
2023-01-11T04:50:19.574Z,80.34
2023-01-11T04:52:47.449Z,80.84
2023-01-11T04:55:14.008Z,80.18
2023-01-11T04:57:40.499Z,80.69
2023-01-11T05:00:10.813Z,80.03
2023-01-11T05:02:37.409Z,80.22
2023-01-11T05:05:04.403Z,80.36
2023-01-11T05:07:31.026Z,80.18
2023-01-11T05:09:58.913Z,75.77
2023-01-11T05:12:25.475Z,81.51
2023-01-11T05:14:52.015Z,80.45
2023-01-11T05:17:18.621Z,79.92
2023-01-11T05:19:45.181Z,80.76
2023-01-11T05:22:11.747Z,80.35
2023-01-11T05:24:38.290Z,81.50
2023-01-11T05:27:06.238Z,81.08
2023-01-11T05:29:32.836Z,80.71
2023-01-11T05:31:59.527Z,80.66
2023-01-11T05:34:26.164Z,80.23
2023-01-11T05:36:52.725Z,80.16
2023-01-11T05:39:19.269Z,80.10
2023-01-11T05:41:45.813Z,80.66
2023-01-11T05:44:32.572Z,77.35
2023-01-11T05:46:59.548Z,81.89
2023-01-11T05:49:26.133Z,80.39
2023-01-11T05:51:52.665Z,78.81
2023-01-11T05:54:19.428Z,78.70
2023-01-11T05:56:46.110Z,82.25
2023-01-11T05:59:14.072Z,80.92
2023-01-11T06:01:40.692Z,80.53
2023-01-11T06:04:08.404Z,81.06
2023-01-11T06:06:35.125Z,81.89
2023-01-11T06:09:01.712Z,81.14
2023-01-11T06:11:28.349Z,78.75
2023-01-11T06:13:54.968Z,82.60
2023-01-11T06:16:23.684Z,81.54
2023-01-11T06:18:52.471Z,79.41
2023-01-11T06:21:20.054Z,81.38
2023-01-11T06:23:50.542Z,80.83
2023-01-11T06:26:19.322Z,80.66
2023-01-11T06:28:46.505Z,80.38
2023-01-11T06:31:15.470Z,81.45
2023-01-11T06:33:45.120Z,81.18
2023-01-11T06:36:13.257Z,80.40
2023-01-11T06:38:40.638Z,80.38
2023-01-11T06:41:10.802Z,80.69
2023-01-11T06:43:41.003Z,76.57
2023-01-11T06:46:10.831Z,82.38
2023-01-11T06:48:37.470Z,78.77
2023-01-11T06:51:05.690Z,83.54
2023-01-11T06:53:32.330Z,84.23
2023-01-11T06:55:58.987Z,80.46
2023-01-11T06:58:26.437Z,81.96
2023-01-11T07:00:54.683Z,81.00
2023-01-11T07:03:23.956Z,81.30
2023-01-11T07:05:51.387Z,77.72
2023-01-11T07:08:19.800Z,83.16
2023-01-11T07:10:46.461Z,83.29
2023-01-11T07:13:16.063Z,82.92
2023-01-11T07:15:43.248Z,81.50
2023-01-11T07:18:11.407Z,79.98
2023-01-11T07:20:38.333Z,82.08
2023-01-11T07:23:04.882Z,81.05
2023-01-11T07:25:32.772Z,81.02
2023-01-11T07:28:00.767Z,81.05
2023-01-11T07:30:29.561Z,79.13
2023-01-11T07:32:58.084Z,83.11
2023-01-11T07:35:24.829Z,77.38
2023-01-11T07:37:51.470Z,82.93
2023-01-11T07:40:18.616Z,78.46
2023-01-11T07:43:09.966Z,81.85
2023-01-11T07:45:45.506Z,83.48
2023-01-11T07:48:13.427Z,81.18
2023-01-11T07:50:43.453Z,80.97
2023-01-11T07:53:11.211Z,81.61
2023-01-11T07:55:39.552Z,80.82
2023-01-11T07:58:08.524Z,80.67
2023-01-11T08:00:35.165Z,81.80
2023-01-11T08:03:02.563Z,78.50
2023-01-11T08:05:29.659Z,82.98
2023-01-11T08:07:56.192Z,83.31
2023-01-11T08:10:24.148Z,80.74
2023-01-11T08:13:09.748Z,83.71
2023-01-11T08:15:37.921Z,82.44
2023-01-11T08:18:05.847Z,81.67
2023-01-11T08:20:32.679Z,80.22
2023-01-11T08:23:03.438Z,82.15
2023-01-11T08:25:30.063Z,81.57
2023-01-11T08:27:59.539Z,81.66
2023-01-11T08:30:26.097Z,83.46
2023-01-11T08:32:54.019Z,82.75
2023-01-11T08:35:21.849Z,83.57
2023-01-11T08:37:48.384Z,82.39
2023-01-11T08:40:15.084Z,82.60
2023-01-11T08:42:41.622Z,81.76
2023-01-11T08:45:08.972Z,81.51
2023-01-11T08:47:35.555Z,81.03
2023-01-11T08:50:03.782Z,81.38
2023-01-11T08:52:30.354Z,81.03
2023-01-11T08:54:56.905Z,81.14
2023-01-11T08:57:23.457Z,82.67
2023-01-11T08:59:50.008Z,81.88
2023-01-11T09:02:17.059Z,81.08
2023-01-11T09:04:43.670Z,81.07
2023-01-11T09:07:11.631Z,81.04
2023-01-11T09:09:38.223Z,80.97
2023-01-11T09:12:05.957Z,81.43
2023-01-11T09:14:32.863Z,80.08
2023-01-11T09:16:59.499Z,79.82
2023-01-11T09:19:26.133Z,80.88
2023-01-11T09:21:53.256Z,79.79
2023-01-11T09:24:21.204Z,78.86
2023-01-11T09:26:48.037Z,75.44
2023-01-11T09:29:14.748Z,76.99
2023-01-11T09:31:41.392Z,79.98
2023-01-11T09:34:10.880Z,79.83
2023-01-11T09:36:39.847Z,80.58
2023-01-11T09:39:10.369Z,80.38
2023-01-11T09:42:00.193Z,79.19
2023-01-11T09:44:29.715Z,80.47
2023-01-11T09:47:14.015Z,80.19
2023-01-11T09:49:44.652Z,82.13
2023-01-11T09:52:23.808Z,79.52
2023-01-11T09:54:51.244Z,77.37
2023-01-11T09:57:30.972Z,78.17
2023-01-11T10:00:04.922Z,75.46
2023-01-11T10:02:40.342Z,75.97
2023-01-11T10:05:29.728Z,78.25
2023-01-11T10:18:25.903Z,80.30
2023-01-11T10:18:28.855Z,82.12
2023-01-11T10:19:59.111Z,76.27
2023-01-11T10:22:33.483Z,82.80
2023-01-11T10:25:07.420Z,75.55
2023-01-11T10:27:38.918Z,78.05
2023-01-11T10:30:35.811Z,82.92
2023-01-11T10:33:25.380Z,75.71
2023-01-11T10:36:13.642Z,78.00
2023-01-11T10:39:16.003Z,80.19
2023-01-11T10:41:54.951Z,82.79
2023-01-11T10:44:31.360Z,69.89
2023-01-11T10:47:02.269Z,66.48
2023-01-11T10:49:36.429Z,77.69
2023-01-11T10:52:13.737Z,69.35
2023-01-11T10:54:46.798Z,75.82
2023-01-11T10:57:20.349Z,79.53
2023-01-11T11:00:02.541Z,78.90
2023-01-11T11:02:45.009Z,77.02
2023-01-11T11:05:23.549Z,78.89
2023-01-11T11:07:55.556Z,82.74
2023-01-11T11:10:30.506Z,73.55
2023-01-11T11:13:07.897Z,67.18
2023-01-11T11:15:41.049Z,68.40
2023-01-11T11:18:09.873Z,67.42
2023-01-11T11:20:36.434Z,67.12
2023-01-11T11:23:03.090Z,67.31
2023-01-11T11:25:32.524Z,68.12
2023-01-11T11:28:03.093Z,74.19
2023-01-11T11:30:33.577Z,70.12
2023-01-11T11:33:03.098Z,68.02
2023-01-11T11:35:33.038Z,76.83
2023-01-11T11:38:00.220Z,77.91
2023-01-11T11:40:33.439Z,77.59
2023-01-11T11:43:20.973Z,79.09
2023-01-11T11:45:52.448Z,79.16
2023-01-11T11:48:19.139Z,78.86
2023-01-11T11:50:48.464Z,82.17
2023-01-11T11:53:28.350Z,76.68
2023-01-11T11:55:55.228Z,77.85
2023-01-11T11:58:25.132Z,79.25
2023-01-11T12:00:53.016Z,79.99
2023-01-11T12:03:23.597Z,77.76
2023-01-11T12:05:55.143Z,79.05
2023-01-11T12:08:24.928Z,81.73
2023-01-11T12:10:57.377Z,73.90
2023-01-11T12:13:28.134Z,73.49
2023-01-11T12:15:58.856Z,76.29
2023-01-11T12:18:27.347Z,74.59
2023-01-11T12:20:55.656Z,74.05
2023-01-11T12:23:26.758Z,76.56
2023-01-11T12:26:20.078Z,78.63
2023-01-11T12:29:01.612Z,73.55
2023-01-11T12:31:39.028Z,78.69
2023-01-11T12:34:16.377Z,75.49
2023-01-11T12:36:52.591Z,71.68
2023-01-11T12:39:24.779Z,70.82
2023-01-11T12:42:01.758Z,68.45
2023-01-11T12:44:42.419Z,75.94
2023-01-11T12:47:30.938Z,78.20
2023-01-11T12:50:08.504Z,80.33
2023-01-11T12:52:45.479Z,76.68
2023-01-11T12:55:34.072Z,74.23
2023-01-11T12:58:08.716Z,78.42
2023-01-11T13:00:55.415Z,78.22
2023-01-11T13:03:56.334Z,81.98
2023-01-11T13:06:30.269Z,75.88
2023-01-11T13:09:04.623Z,72.02
2023-01-11T13:11:45.857Z,70.90
2023-01-11T13:14:35.922Z,78.10
2023-01-11T13:17:15.459Z,79.16
2023-01-11T13:19:50.414Z,81.30
2023-01-11T13:22:20.924Z,81.61
2023-01-11T13:24:51.009Z,79.97
2023-01-11T13:27:24.597Z,78.04
2023-01-11T13:29:55.010Z,79.24
2023-01-11T13:32:24.209Z,78.66
2023-01-11T13:34:55.683Z,80.62
2023-01-11T13:37:29.515Z,79.70
2023-01-11T13:40:08.208Z,77.29
2023-01-11T13:42:38.454Z,79.52
2023-01-11T13:45:16.356Z,78.55
2023-01-11T13:47:46.243Z,78.97
2023-01-11T13:50:20.496Z,81.86
2023-01-11T13:52:57.814Z,83.65
2023-01-11T13:55:31.528Z,76.61
2023-01-11T13:58:03.303Z,78.84
2023-01-11T14:00:33.636Z,82.67
2023-01-11T14:03:09.857Z,80.50
2023-01-11T14:05:45.837Z,79.81
2023-01-11T14:08:23.781Z,81.60
2023-01-11T14:11:03.507Z,82.94
2023-01-11T14:14:09.442Z,84.62
2023-01-11T14:16:48.535Z,81.48
2023-01-11T14:19:22.367Z,83.72
2023-01-11T14:22:01.851Z,81.50
2023-01-11T14:24:31.955Z,81.84
2023-01-11T14:27:18.534Z,81.72
2023-01-11T14:30:01.017Z,83.22
2023-01-11T14:32:49.948Z,81.84
2023-01-11T14:36:01.569Z,82.91
2023-01-11T14:38:51.047Z,82.44
2023-01-11T14:41:40.141Z,82.96
2023-01-11T14:44:22.939Z,82.53
2023-01-11T14:47:24.231Z,82.64
2023-01-11T14:50:04.922Z,83.35
2023-01-11T14:52:40.080Z,83.06
2023-01-11T14:55:16.209Z,83.01
2023-01-11T14:57:44.388Z,82.92
2023-01-11T15:00:58.882Z,84.66
2023-01-11T15:03:36.188Z,84.83
2023-01-11T15:06:13.541Z,82.89
2023-01-11T15:08:49.109Z,82.59
2023-01-11T15:11:31.002Z,83.40
2023-01-11T15:14:03.018Z,83.55
2023-01-11T15:16:50.513Z,83.49
2023-01-11T15:19:28.139Z,83.12
2023-01-11T15:21:57.027Z,84.64
2023-01-11T15:24:27.071Z,83.59
2023-01-11T15:26:54.474Z,84.60
2023-01-11T15:29:23.877Z,83.50
2023-01-11T15:32:07.051Z,82.68
2023-01-11T15:34:44.038Z,82.95
2023-01-11T15:37:31.101Z,83.84
2023-01-11T15:40:00.663Z,83.14
2023-01-11T15:43:05.807Z,83.50
2023-01-11T15:46:07.715Z,83.69
2023-01-11T15:48:43.375Z,83.78
2023-01-11T15:51:34.862Z,82.97
2023-01-11T15:54:29.153Z,83.42
2023-01-11T15:57:11.690Z,83.72
2023-01-11T16:00:02.926Z,83.78
2023-01-11T16:03:19.740Z,82.69
2023-01-11T16:05:54.135Z,85.13
2023-01-11T16:08:27.632Z,83.64
2023-01-11T16:11:08.535Z,83.40
2023-01-11T16:13:51.200Z,82.47
2023-01-11T16:16:21.107Z,83.38
2023-01-11T16:18:54.303Z,82.81
2023-01-11T16:21:30.580Z,83.17
2023-01-11T16:23:58.605Z,82.30
2023-01-11T16:26:25.760Z,83.41
2023-01-11T16:28:56.233Z,84.89
2023-01-11T16:31:23.245Z,87.84
2023-01-11T16:33:50.176Z,84.40
2023-01-11T16:36:18.966Z,83.49
2023-01-11T16:39:02.327Z,84.80
2023-01-11T16:41:32.747Z,83.66
2023-01-11T16:44:02.247Z,83.05
2023-01-11T16:47:14.660Z,82.73
2023-01-11T16:49:43.332Z,82.53
2023-01-11T16:52:35.716Z,82.78
2023-01-11T16:55:13.886Z,82.36
2023-01-11T16:57:44.088Z,83.15
2023-01-11T17:00:22.278Z,83.39
2023-01-11T17:03:00.112Z,82.44
2023-01-11T17:05:27.016Z,83.11
2023-01-11T17:07:53.551Z,82.95
2023-01-11T17:10:23.981Z,83.45
2023-01-11T17:13:34.421Z,88.25
2023-01-11T17:16:07.740Z,84.44
2023-01-11T17:18:37.183Z,83.52
2023-01-11T17:21:04.085Z,84.60
2023-01-11T17:23:31.155Z,83.01
2023-01-11T17:25:59.197Z,84.70
2023-01-11T17:28:26.172Z,85.11
2023-01-11T17:30:53.733Z,86.87
2023-01-11T17:33:26.489Z,83.02
2023-01-11T17:35:54.523Z,83.38
2023-01-11T17:38:22.364Z,83.85
2023-01-11T17:40:49.085Z,85.61
2023-01-11T17:43:39.594Z,84.57
2023-01-11T17:46:07.330Z,85.18
2023-01-11T17:48:34.499Z,82.97
2023-01-11T17:51:03.003Z,84.10
2023-01-11T17:53:32.292Z,82.76
2023-01-11T17:56:01.049Z,84.32
2023-01-11T17:58:30.496Z,83.24
2023-01-11T18:01:18.257Z,87.30
2023-01-11T18:03:46.927Z,83.41
2023-01-11T18:06:18.673Z,83.19
2023-01-11T18:08:47.424Z,85.74
2023-01-11T18:11:25.512Z,83.55
2023-01-11T18:13:55.273Z,82.22
2023-01-11T18:16:22.302Z,84.09
2023-01-11T18:18:50.298Z,83.50
2023-01-11T18:21:42.216Z,83.08
2023-01-11T18:24:25.261Z,84.14
2023-01-11T18:27:05.964Z,84.86
2023-01-11T18:29:48.354Z,82.80
2023-01-11T18:32:15.514Z,82.93
2023-01-11T18:34:44.286Z,82.49
2023-01-11T18:37:11.015Z,82.69
2023-01-11T18:39:37.569Z,83.32
2023-01-11T18:42:08.111Z,82.27
2023-01-11T18:44:35.520Z,82.41
2023-01-11T18:47:13.332Z,83.68
2023-01-11T18:49:39.834Z,84.13
2023-01-11T18:52:06.488Z,84.01
2023-01-11T18:54:32.993Z,84.23
2023-01-11T18:56:59.569Z,84.78
2023-01-11T18:59:26.134Z,85.63
2023-01-11T19:02:01.610Z,86.00
2023-01-11T19:04:36.026Z,84.37
2023-01-11T19:07:02.551Z,86.78
2023-01-11T19:09:29.080Z,84.30
2023-01-11T19:11:55.832Z,84.75
2023-01-11T19:14:22.361Z,84.43
2023-01-11T19:16:48.888Z,85.37
2023-01-11T19:19:15.584Z,85.06
2023-01-11T19:21:43.451Z,82.83
2023-01-11T19:24:10.105Z,83.85
2023-01-11T19:26:36.748Z,84.40
2023-01-11T19:29:03.731Z,82.90
2023-01-11T19:31:30.680Z,81.64
2023-01-11T19:33:57.284Z,84.24
2023-01-11T19:36:23.854Z,85.21
2023-01-11T19:38:51.727Z,85.26
2023-01-11T19:41:18.275Z,85.23
2023-01-11T19:43:45.209Z,85.49
2023-01-11T19:46:12.147Z,84.01
2023-01-11T19:48:40.092Z,84.43
2023-01-11T19:51:10.138Z,85.13
2023-01-11T19:53:37.383Z,84.99
2023-01-11T19:56:07.331Z,85.67
2023-01-11T19:58:36.664Z,83.31
2023-01-11T20:01:09.586Z,84.72
2023-01-11T20:03:36.162Z,82.61
2023-01-11T20:06:04.626Z,83.49
2023-01-11T20:08:31.211Z,82.33
2023-01-11T20:11:03.406Z,84.25
2023-01-11T20:13:31.367Z,83.38
2023-01-11T20:15:57.969Z,84.07
2023-01-11T20:18:24.590Z,84.45
2023-01-11T20:20:54.571Z,83.84
2023-01-11T20:23:21.131Z,84.36
2023-01-11T20:25:47.722Z,85.48
2023-01-11T20:28:14.426Z,84.66
2023-01-11T20:30:42.396Z,84.56
2023-01-11T20:33:10.062Z,84.79
2023-01-11T20:35:37.675Z,84.92
2023-01-11T20:38:04.177Z,83.53
2023-01-11T20:40:30.684Z,84.84
2023-01-11T20:42:57.388Z,82.29
2023-01-11T20:45:23.891Z,85.42
2023-01-11T20:47:51.733Z,84.14
2023-01-11T20:50:18.275Z,82.92
2023-01-11T20:52:44.783Z,84.11
2023-01-11T20:55:11.290Z,84.71
2023-01-11T20:57:37.874Z,83.10
2023-01-11T21:00:07.584Z,81.98
2023-01-11T21:02:34.018Z,81.79
2023-01-11T21:05:04.457Z,81.86
2023-01-11T21:07:31.102Z,82.18
2023-01-11T21:09:57.691Z,81.70
2023-01-11T21:12:24.532Z,81.70
2023-01-11T21:14:51.111Z,82.09
2023-01-11T21:17:19.151Z,81.72
2023-01-11T21:19:45.775Z,81.64
2023-01-11T21:22:13.647Z,81.96
2023-01-11T21:24:41.026Z,82.53
2023-01-11T21:27:07.643Z,82.28
2023-01-11T21:29:34.388Z,81.51
2023-01-11T21:32:01.075Z,83.53
2023-01-11T21:34:27.690Z,82.20
2023-01-11T21:36:54.233Z,81.69
2023-01-11T21:39:22.192Z,81.52
2023-01-11T21:42:03.471Z,81.85
2023-01-11T21:44:33.151Z,81.73
2023-01-11T21:46:59.565Z,81.65
2023-01-11T21:49:26.384Z,81.68
2023-01-11T21:51:53.392Z,87.49
2023-01-11T21:54:20.355Z,84.57
2023-01-11T21:56:49.157Z,82.31
2023-01-11T21:59:16.436Z,82.17
2023-01-11T22:01:45.670Z,86.95
2023-01-11T22:04:14.663Z,87.26
2023-01-11T22:06:42.978Z,82.82
2023-01-11T22:09:11.523Z,83.85
2023-01-11T22:11:38.617Z,83.27
2023-01-11T22:14:08.448Z,82.57
2023-01-11T22:16:36.323Z,82.75
2023-01-11T22:19:03.757Z,83.68
2023-01-11T22:21:30.364Z,82.65
2023-01-11T22:23:58.413Z,81.76
2023-01-11T22:26:26.114Z,83.42
2023-01-11T22:29:14.557Z,81.97
2023-01-11T22:31:44.344Z,83.56
2023-01-11T22:34:11.753Z,81.90
2023-01-11T22:36:38.533Z,82.89
2023-01-11T22:39:05.530Z,84.47
2023-01-11T22:41:32.609Z,82.52
2023-01-11T22:43:59.427Z,81.50
2023-01-11T22:46:27.222Z,82.52
2023-01-11T22:48:55.137Z,84.29
2023-01-11T22:51:24.588Z,83.91
2023-01-11T22:53:52.695Z,83.41
2023-01-11T22:56:22.011Z,83.65
2023-01-11T22:58:50.562Z,83.84
2023-01-11T23:01:20.268Z,83.55
2023-01-11T23:03:46.692Z,84.25
2023-01-11T23:06:17.215Z,81.91
2023-01-11T23:08:43.909Z,82.20
2023-01-11T23:11:14.583Z,82.84
2023-01-11T23:13:54.721Z,83.30
2023-01-11T23:16:21.644Z,82.89
2023-01-11T23:18:48.469Z,82.82
2023-01-11T23:21:16.964Z,82.15
2023-01-11T23:23:43.843Z,81.63
2023-01-11T23:26:12.154Z,82.01
2023-01-11T23:28:39.121Z,81.45
2023-01-11T23:31:14.209Z,81.66
2023-01-11T23:33:40.811Z,81.75
2023-01-11T23:36:08.009Z,80.34
2023-01-11T23:38:35.947Z,82.59
2023-01-11T23:41:25.871Z,82.13
2023-01-11T23:43:52.511Z,82.50
2023-01-11T23:46:37.634Z,82.43
2023-01-11T23:49:05.324Z,83.67
2023-01-11T23:51:32.049Z,83.06
2023-01-11T23:54:00.245Z,83.38
2023-01-11T23:56:26.818Z,81.73
2023-01-11T23:58:53.540Z,78.65
